Time;durP1;ratioP1;P1;durP2;ratioP2;P2;SDS_P1;SDS_P2;PMS_P1;PMS_P2;Temp;Humidity;BMP_temperature;BMP_pressure;BME280_temperature;BME280_humidity;BME280_pressure;Samples;Min_cycle;Max_cycle;Signal;HPM_P1;HPM_P2
2024/02/08 00:00:48;;;;;;;0.80;0.80;;;;;;;7.31;94.12;97294.59;4913529;28;20064;-90
2024/02/08 00:03:13;;;;;;;0.70;0.70;;;;;;;7.24;94.53;97297.13;4930600;28;20330;-89
2024/02/08 00:05:40;;;;;;;0.80;0.80;;;;;;;7.26;94.41;97296.28;4902178;28;20046;-92
2024/02/08 00:08:11;;;;;;;0.80;0.80;;;;;;;7.26;94.38;97296.28;4918380;28;20037;-92
2024/02/08 00:10:37;;;;;;;0.80;0.80;;;;;;;7.35;93.54;97296.44;5002794;28;20040;-91
2024/02/08 00:13:03;;;;;;;0.80;0.80;;;;;;;7.35;93.62;97293.78;4931763;28;20039;-91
2024/02/08 00:15:29;;;;;;;0.70;0.70;;;;;;;7.32;94.49;97295.50;4936464;28;20041;-91
2024/02/08 00:17:56;;;;;;;0.70;0.70;;;;;;;7.30;93.69;97282.22;4924045;28;20383;-91
2024/02/08 00:20:25;;;;;;;0.70;0.70;;;;;;;7.50;92.66;97289.63;4926375;28;20028;-90
2024/02/08 00:22:53;;;;;;;0.80;0.80;;;;;;;7.49;92.33;97282.53;4916890;28;20028;-91
2024/02/08 00:25:19;;;;;;;0.80;0.80;;;;;;;7.43;93.27;97278.91;4911383;28;20046;-90
2024/02/08 00:27:48;;;;;;;0.70;0.70;;;;;;;7.54;92.22;97279.09;4942664;28;20028;-90
2024/02/08 00:30:17;;;;;;;0.80;0.80;;;;;;;7.39;93.62;97276.19;4928082;28;20332;-90
2024/02/08 00:32:46;;;;;;;0.80;0.80;;;;;;;7.37;93.02;97273.47;4923232;29;20475;-90
2024/02/08 00:35:18;;;;;;;0.70;0.70;;;;;;;7.39;93.44;97266.47;4924243;28;20099;-90
2024/02/08 00:37:48;;;;;;;0.70;0.70;;;;;;;7.63;91.55;97268.66;4945497;28;20123;-91
2024/02/08 00:40:18;;;;;;;0.80;0.80;;;;;;;7.61;91.51;97267.72;4931446;28;20083;-92
2024/02/08 00:42:46;;;;;;;0.70;0.70;;;;;;;7.51;92.34;97257.81;4915077;28;20028;-92
2024/02/08 00:45:15;;;;;;;0.77;0.77;;;;;;;7.64;91.73;97257.16;4925580;28;20024;-92
2024/02/08 00:47:40;;;;;;;0.70;0.70;;;;;;;7.52;92.62;97256.03;5013854;28;20020;-91
2024/02/08 00:50:07;;;;;;;0.68;0.68;;;;;;;7.59;91.76;97257.94;4919539;29;20044;-93
2024/02/08 00:52:33;;;;;;;0.70;0.70;;;;;;;7.53;92.31;97257.84;4924793;28;20036;-93
2024/02/08 00:54:59;;;;;;;0.70;0.70;;;;;;;7.55;91.96;97257.00;4961745;28;20031;-93
2024/02/08 00:57:32;;;;;;;0.80;0.80;;;;;;;7.66;92.17;97259.81;4923542;28;20033;-93
2024/02/08 00:59:58;;;;;;;0.70;0.70;;;;;;;7.76;90.95;97256.47;4944589;29;20024;-93
2024/02/08 01:02:23;;;;;;;0.70;0.70;;;;;;;7.75;90.00;97253.78;4920902;28;20012;-93
2024/02/08 01:04:49;;;;;;;0.68;0.68;;;;;;;7.88;89.80;97256.66;4952555;28;20055;-93
2024/02/08 01:07:15;;;;;;;0.70;0.70;;;;;;;7.76;91.13;97260.88;4943320;28;20063;-94
2024/02/08 01:09:40;;;;;;;0.70;0.70;;;;;;;7.90;89.76;97262.88;4912165;28;20241;-92
2024/02/08 01:12:06;;;;;;;0.80;0.80;;;;;;;8.08;88.52;97256.06;4956265;28;20048;-93
2024/02/08 01:14:31;;;;;;;0.70;0.70;;;;;;;8.12;87.72;97257.91;4945489;28;20640;-93
2024/02/08 01:16:57;;;;;;;0.60;0.60;;;;;;;8.07;88.75;97251.63;4930927;28;20040;-93
2024/02/08 01:19:22;;;;;;;0.70;0.70;;;;;;;8.18;88.28;97255.34;4941153;28;20066;-93
2024/02/08 01:21:52;;;;;;;0.70;0.70;;;;;;;8.31;87.20;97264.38;4916160;28;20082;-93
2024/02/08 01:24:20;;;;;;;0.70;0.70;;;;;;;8.33;87.48;97266.19;4930659;28;20087;-92
2024/02/08 01:26:47;;;;;;;0.70;0.70;;;;;;;8.32;87.04;97263.50;4928577;28;20059;-93
2024/02/08 01:29:13;;;;;;;0.70;0.70;;;;;;;8.35;86.93;97268.88;4928527;28;20071;-91
2024/02/08 01:31:39;;;;;;;0.70;0.70;;;;;;;8.50;86.28;97257.59;4931135;28;20072;-93
2024/02/08 01:34:07;;;;;;;0.70;0.70;;;;;;;8.46;86.21;97260.19;4936109;28;20074;-92
2024/02/08 01:36:37;;;;;;;0.70;0.70;;;;;;;8.36;86.45;97258.28;4936499;28;20056;-94
2024/02/08 01:39:07;;;;;;;0.70;0.70;;;;;;;8.46;86.84;97256.66;4913802;28;20052;-93
2024/02/08 01:41:34;;;;;;;0.70;0.70;;;;;;;8.50;85.96;97258.50;4937978;28;20064;-93
2024/02/08 01:44:07;;;;;;;0.70;0.70;;;;;;;8.44;86.43;97261.97;4927000;28;20047;-92
2024/02/08 01:46:39;;;;;;;0.80;0.80;;;;;;;8.50;86.05;97252.28;4920737;28;20058;-92
2024/02/08 01:49:20;;;;;;;0.70;0.70;;;;;;;8.56;85.89;97247.94;4897524;29;20036;-91
2024/02/08 01:51:46;;;;;;;0.70;0.70;;;;;;;8.58;85.40;97251.53;4916993;29;20107;-94
2024/02/08 01:54:12;;;;;;;0.60;0.60;;;;;;;8.58;85.38;97250.63;4928369;28;20040;-92
2024/02/08 01:56:42;;;;;;;0.60;0.60;;;;;;;8.68;84.65;97252.53;4930193;28;20055;-92
2024/02/08 01:59:10;;;;;;;0.70;0.70;;;;;;;8.70;84.68;97243.69;4948984;28;20063;-92
2024/02/08 02:01:36;;;;;;;0.70;0.70;;;;;;;8.76;84.75;97244.63;4935925;28;20031;-92
2024/02/08 02:04:02;;;;;;;0.70;0.70;;;;;;;8.77;84.37;97236.69;4925698;28;20040;-92
2024/02/08 02:06:28;;;;;;;0.80;0.80;;;;;;;8.71;84.72;97242.78;4907663;28;20040;-91
2024/02/08 02:08:57;;;;;;;0.63;0.63;;;;;;;8.87;83.90;97233.25;4915475;28;20024;-92
2024/02/08 02:11:44;;;;;;;0.70;0.70;;;;;;;8.85;84.13;97235.00;4937818;28;20041;-92
2024/02/08 02:14:11;;;;;;;0.80;0.80;;;;;;;8.76;84.54;97244.63;4927446;28;20048;-92
2024/02/08 02:16:36;;;;;;;0.70;0.70;;;;;;;8.75;84.31;97238.41;4913648;28;20044;-92
2024/02/08 02:19:06;;;;;;;0.80;0.80;;;;;;;8.87;83.89;97238.59;4925880;29;20108;-92
2024/02/08 02:21:34;;;;;;;0.77;0.77;;;;;;;8.81;84.24;97233.16;4932384;28;20032;-93
2024/02/08 02:23:59;;;;;;;0.70;0.70;;;;;;;8.91;83.66;97232.44;4934363;28;20086;-93
2024/02/08 02:26:25;;;;;;;0.70;0.70;;;;;;;8.87;83.85;97235.94;4932510;28;20097;-92
2024/02/08 02:28:51;;;;;;;0.70;0.70;;;;;;;8.83;84.14;97233.22;4922508;28;20033;-92
2024/02/08 02:31:19;;;;;;;0.70;0.70;;;;;;;9.04;83.46;97235.22;4919292;28;20032;-92
2024/02/08 02:33:46;;;;;;;0.70;0.70;;;;;;;8.96;83.60;97230.72;4942827;28;20034;-92
2024/02/08 02:36:14;;;;;;;0.70;0.70;;;;;;;8.88;83.99;97223.50;4930195;28;20036;-92
2024/02/08 02:38:41;;;;;;;0.60;0.60;;;;;;;8.82;84.24;97221.69;4932268;28;20668;-91
2024/02/08 02:41:07;;;;;;;0.70;0.70;;;;;;;8.98;83.34;97218.31;5008365;28;20037;-92
2024/02/08 02:43:37;;;;;;;0.60;0.60;;;;;;;9.00;83.02;97218.31;4923832;28;20032;-92
2024/02/08 02:46:05;;;;;;;0.70;0.70;;;;;;;8.93;83.26;97214.72;4930222;28;20045;-92
2024/02/08 02:48:40;;;;;;;0.70;0.70;;;;;;;8.98;83.67;97217.41;4936241;28;20044;-91
2024/02/08 02:51:12;;;;;;;0.70;0.70;;;;;;;8.93;83.51;97217.38;4942165;28;20036;-91
2024/02/08 02:53:40;;;;;;;0.70;0.70;;;;;;;8.98;83.53;97212.97;4933264;28;20032;-92
2024/02/08 02:56:07;;;;;;;0.68;0.68;;;;;;;8.87;84.17;97208.44;4909481;29;20046;-93
2024/02/08 02:58:33;;;;;;;0.70;0.70;;;;;;;8.99;83.66;97212.09;4941039;28;20029;-91
2024/02/08 03:01:04;;;;;;;0.70;0.70;;;;;;;9.08;83.05;97206.00;4942043;28;20055;-92
2024/02/08 03:03:37;;;;;;;0.70;0.70;;;;;;;9.14;82.59;97206.03;4914817;28;20066;-91
2024/02/08 03:06:13;;;;;;;0.70;0.70;;;;;;;9.14;82.96;97206.03;4940156;28;20036;-92
2024/02/08 03:08:44;;;;;;;0.60;0.60;;;;;;;8.99;83.79;97209.44;4920718;28;20032;-93
2024/02/08 03:11:12;;;;;;;0.70;0.70;;;;;;;8.91;83.76;97203.16;4917102;28;20133;-93
2024/02/08 03:13:42;;;;;;;0.63;0.63;;;;;;;8.81;84.65;97205.69;4914659;28;20038;-91
2024/02/08 03:16:14;;;;;;;0.70;0.70;;;;;;;8.78;85.46;97203.91;4895306;29;20047;-91
2024/02/08 03:18:45;;;;;;;0.70;0.70;;;;;;;8.60;86.60;97201.03;4900062;28;20040;-92
2024/02/08 03:21:17;;;;;;;0.70;0.70;;;;;;;8.48;87.85;97205.31;4919379;28;20046;-92
2024/02/08 03:23:47;;;;;;;0.70;0.70;;;;;;;8.48;87.95;97207.97;4927734;28;20054;-91
2024/02/08 03:26:16;;;;;;;0.70;0.70;;;;;;;8.47;88.95;97205.28;4911117;28;20079;-90
2024/02/08 03:28:46;;;;;;;0.70;0.70;;;;;;;8.40;89.45;97206.97;4891963;28;20028;-90
2024/02/08 03:31:14;;;;;;;0.70;0.70;;;;;;;8.32;89.65;97200.63;4901998;28;20036;-90
2024/02/08 03:33:40;;;;;;;0.70;0.70;;;;;;;8.20;91.03;97201.38;4988197;28;20091;-89
2024/02/08 03:36:08;;;;;;;0.70;0.70;;;;;;;8.28;90.83;97204.09;4913747;28;20059;-90
2024/02/08 03:38:33;;;;;;;0.70;0.70;;;;;;;8.34;90.04;97206.88;4920700;28;20075;-90
2024/02/08 03:41:00;;;;;;;0.70;0.70;;;;;;;8.34;90.11;97193.59;4884441;28;20068;-89
2024/02/08 03:43:26;;;;;;;0.80;0.80;;;;;;;8.41;89.46;97197.25;4938380;28;20036;-90
2024/02/08 03:45:57;;;;;;;0.70;0.70;;;;;;;8.32;90.26;97195.31;4927884;28;20045;-89
2024/02/08 03:48:23;;;;;;;0.70;0.70;;;;;;;8.31;90.09;97190.88;4955386;28;20032;-90
2024/02/08 03:50:51;;;;;;;0.80;0.80;;;;;;;8.42;89.51;97199.91;4904480;28;20245;-90
2024/02/08 03:53:20;;;;;;;0.70;0.70;;;;;;;8.34;89.77;97201.56;4918152;28;20114;-89
2024/02/08 03:55:48;;;;;;;0.70;0.70;;;;;;;8.39;89.81;97210.50;4909286;29;20109;-88
2024/02/08 03:58:17;;;;;;;0.80;0.80;;;;;;;8.57;88.05;97206.28;4913622;28;20040;-89
2024/02/08 04:00:46;;;;;;;0.70;0.70;;;;;;;8.50;88.39;97209.75;4996858;28;20059;-91
2024/02/08 04:03:14;;;;;;;0.70;0.70;;;;;;;8.54;87.79;97198.28;4927718;28;20044;-90
2024/02/08 04:54:43;;;;;;;0.70;0.70;;;;;;;8.27;92.99;97196.13;4920639;28;20037;-90
2024/02/08 04:57:11;;;;;;;0.70;0.70;;;;;;;8.23;93.34;97187.22;4919539;28;20040;-91
2024/02/08 04:59:41;;;;;;;0.70;0.70;;;;;;;8.12;94.43;97196.81;4921861;28;20039;-92
2024/02/08 05:02:06;;;;;;;0.75;0.75;;;;;;;8.19;94.61;97193.34;4918338;28;20037;-91
2024/02/08 05:04:35;;;;;;;0.70;0.70;;;;;;;8.14;94.47;97195.94;4918392;28;20043;-91
2024/02/08 05:07:03;;;;;;;0.70;0.70;;;;;;;8.10;94.82;97188.84;4928823;28;20074;-91
2024/02/08 05:09:30;;;;;;;0.70;0.70;;;;;;;8.13;95.21;97195.94;4914602;28;20060;-92
2024/02/08 05:11:56;;;;;;;0.80;0.80;;;;;;;8.09;95.23;97195.00;4928715;28;20032;-91
2024/02/08 05:14:22;;;;;;;0.70;0.70;;;;;;;8.17;95.02;97184.50;4929517;28;20062;-91
2024/02/08 05:16:54;;;;;;;0.70;0.70;;;;;;;8.19;94.49;97182.72;4939581;28;20053;-91
2024/02/08 05:19:26;;;;;;;0.68;0.68;;;;;;;8.11;95.56;97177.34;4942338;28;20044;-91
2024/02/08 05:21:59;;;;;;;0.70;0.70;;;;;;;8.07;95.93;97169.31;4927512;28;20178;-91
2024/02/08 05:24:30;;;;;;;0.70;0.70;;;;;;;8.11;95.56;97179.09;4928231;28;20036;-90
2024/02/08 05:26:57;;;;;;;0.73;0.73;;;;;;;8.05;95.86;97165.72;4943004;28;20024;-92
2024/02/08 05:29:23;;;;;;;0.70;0.70;;;;;;;8.04;96.11;97166.59;4947689;28;20033;-91
2024/02/08 05:31:49;;;;;;;0.70;0.70;;;;;;;8.02;96.51;97169.25;4954225;28;20097;-90
2024/02/08 05:34:16;;;;;;;0.70;0.70;;;;;;;8.01;96.53;97175.44;4952210;28;20040;-92
2024/02/08 05:36:45;;;;;;;0.70;0.70;;;;;;;7.96;96.80;97180.66;4925065;28;20078;-91
2024/02/08 05:39:13;;;;;;;0.70;0.70;;;;;;;8.13;95.48;97172.03;4926694;28;20052;-91
2024/02/08 05:41:44;;;;;;;0.70;0.70;;;;;;;8.18;94.98;97172.97;4932740;28;20035;-90
2024/02/08 05:44:12;;;;;;;0.60;0.60;;;;;;;8.14;95.26;97169.38;4934101;28;20059;-91
2024/02/08 05:46:38;;;;;;;0.70;0.70;;;;;;;8.06;95.90;97165.75;4923181;28;20032;-92
2024/02/08 05:49:04;;;;;;;0.70;0.70;;;;;;;8.04;96.12;97171.91;4908673;28;20032;-91
2024/02/08 05:51:31;;;;;;;0.80;0.80;;;;;;;8.08;95.91;97168.41;4914362;28;20050;-91
2024/02/08 05:54:01;;;;;;;0.60;0.60;;;;;;;8.08;95.87;97164.00;4920089;28;20496;-92
2024/02/08 05:56:33;;;;;;;0.70;0.70;;;;;;;8.03;96.52;97175.44;4928411;28;20036;-92
2024/02/08 05:59:05;;;;;;;0.70;0.70;;;;;;;7.98;97.09;97173.59;4924602;28;20051;-92
2024/02/08 06:01:43;;;;;;;0.70;0.70;;;;;;;8.03;97.13;97178.09;4908799;28;20032;-92
2024/02/08 06:04:12;;;;;;;0.70;0.70;;;;;;;8.11;96.27;97171.13;4896877;28;20094;-93
2024/02/08 06:06:48;;;;;;;0.60;0.60;;;;;;;8.06;96.62;97170.19;4922935;28;20100;-89
2024/02/08 06:09:37;;;;;;;0.70;0.70;;;;;;;8.04;96.85;97171.91;4894153;29;20041;-92
2024/02/08 06:12:09;;;;;;;0.60;0.60;;;;;;;8.14;96.29;97165.84;4914004;28;20048;-91
2024/02/08 06:14:42;;;;;;;0.70;0.70;;;;;;;8.29;95.10;97173.13;4912985;28;20032;-93
2024/02/08 06:17:08;;;;;;;0.70;0.70;;;;;;;8.20;95.50;97179.22;4926949;28;20047;-92
2024/02/08 06:19:50;;;;;;;0.70;0.70;;;;;;;8.18;95.83;97184.50;4934928;28;20042;-91
2024/02/08 06:22:25;;;;;;;0.70;0.70;;;;;;;8.27;95.65;97188.16;4910129;28;20044;-90
2024/02/08 06:24:54;;;;;;;0.70;0.70;;;;;;;8.26;95.26;97189.94;4916594;28;20047;-91
2024/02/08 06:27:33;;;;;;;0.80;0.80;;;;;;;8.34;95.00;97185.63;4910458;28;20224;-91
2024/02/08 06:30:00;;;;;;;0.70;0.70;;;;;;;8.27;95.48;97181.06;4907525;28;20064;-92
2024/02/08 06:37:56;;;;;;;0.70;0.70;;;;;;;8.33;95.53;97186.47;4909691;28;20036;-93
2024/02/08 06:40:37;;;;;;;0.80;0.80;;;;;;;8.26;95.78;97186.38;4906505;28;20540;-90
2024/02/08 07:37:37;;;;;;;0.70;0.70;;;;;;;8.57;93.67;97177.94;4920734;28;20284;-92
2024/02/08 07:45:45;;;;;;;0.80;0.80;;;;;;;8.67;92.99;97182.50;4915389;28;20040;-92
2024/02/08 07:48:13;;;;;;;0.70;0.70;;;;;;;8.77;92.31;97183.50;4899693;28;20016;-92
2024/02/08 07:50:46;;;;;;;0.70;0.70;;;;;;;8.69;92.81;97182.53;4891496;28;20043;-92
2024/02/08 07:53:34;;;;;;;0.70;0.70;;;;;;;8.76;92.69;97181.69;4935740;28;20043;-91
2024/02/08 07:58:55;;;;;;;0.60;0.60;;;;;;;8.77;92.82;97182.59;4956542;28;20044;-92
2024/02/08 08:01:30;;;;;;;0.80;0.80;;;;;;;8.80;92.36;97185.28;4915097;28;20611;-93
2024/02/08 08:03:56;;;;;;;0.70;0.70;;;;;;;8.89;90.92;97182.75;4909565;29;20040;-92
2024/02/08 08:06:22;;;;;;;0.70;0.70;;;;;;;9.02;90.66;97181.09;4900163;28;20043;-92
2024/02/08 08:08:57;;;;;;;0.80;0.80;;;;;;;8.97;90.49;97187.28;4919195;28;20089;-94
2024/02/08 08:11:30;;;;;;;0.70;0.70;;;;;;;9.02;90.44;97175.78;4934712;28;20090;-92
2024/02/08 08:18:58;;;;;;;0.70;0.70;;;;;;;9.03;90.64;97173.13;4915638;28;20036;-94
2024/02/08 08:21:27;;;;;;;0.70;0.70;;;;;;;8.99;90.71;97166.88;4904121;28;20036;-94
2024/02/08 08:24:00;;;;;;;0.70;0.70;;;;;;;9.09;89.81;97169.63;4901336;28;20040;-93
2024/02/08 08:26:51;;;;;;;0.80;0.80;;;;;;;9.04;90.42;97172.25;4921440;28;20074;-93
2024/02/08 08:29:17;;;;;;;0.60;0.60;;;;;;;9.18;89.85;97175.94;4931877;28;20075;-94
2024/02/08 08:31:53;;;;;;;0.70;0.70;;;;;;;9.21;89.82;97173.31;4914571;28;20051;-93
2024/02/08 08:36:58;;;;;;;0.70;0.70;;;;;;;9.47;87.75;97177.97;4921592;28;20028;-92
2024/02/08 08:42:16;;;;;;;0.70;0.70;;;;;;;9.40;88.49;97171.72;4915886;28;20064;-93
2024/02/08 08:44:59;;;;;;;0.70;0.70;;;;;;;9.57;87.67;97160.28;4917201;28;20048;-93
2024/02/08 08:47:28;;;;;;;0.65;0.65;;;;;;;9.55;88.35;97162.06;5008739;28;20099;-93
2024/02/08 08:49:54;;;;;;;0.52;0.52;;;;;;;9.50;87.82;97162.03;4915550;28;20028;-93
2024/02/08 08:52:23;;;;;;;0.68;0.68;;;;;;;9.57;87.58;97162.97;4904632;28;20046;-95
2024/02/08 08:55:01;;;;;;;0.70;0.70;;;;;;;9.74;86.66;97164.00;4895422;28;20812;-94
2024/02/08 08:57:26;;;;;;;;;;;;;;;9.69;87.32;97158.63;4937067;28;20406;-95
2024/02/08 08:59:52;;;;;;;0.70;0.70;;;;;;;9.74;86.55;97159.56;4907940;28;19930;-95
2024/02/08 09:02:20;;;;;;;0.60;0.60;;;;;;;9.67;87.36;97160.38;4919517;28;20047;-93
2024/02/08 09:04:47;;;;;;;0.60;0.60;;;;;;;9.58;87.33;97154.09;4922562;28;20039;-94
2024/02/08 09:07:13;;;;;;;0.60;0.60;;;;;;;9.60;87.33;97163.88;4939177;28;20517;-94
2024/02/08 09:09:57;;;;;;;0.60;0.60;;;;;;;9.76;86.20;97163.09;4938091;28;20070;-94
2024/02/08 09:12:36;;;;;;;0.70;0.70;;;;;;;9.85;86.82;97148.06;4916438;28;20182;-94
2024/02/08 09:15:19;;;;;;;0.60;0.60;;;;;;;10.01;85.05;97152.59;4931916;28;20041;-93
2024/02/08 09:17:52;;;;;;;0.70;0.70;;;;;;;10.27;84.47;97158.13;4927743;28;20039;-94
2024/02/08 09:20:28;;;;;;;0.60;0.60;;;;;;;10.09;84.47;97164.22;4894084;28;20306;-92
2024/02/08 09:22:57;;;;;;;0.70;0.70;;;;;;;9.95;85.57;97164.13;4930092;28;20116;-95
2024/02/08 09:25:25;;;;;;;0.60;0.60;;;;;;;9.81;86.83;97162.25;4975177;28;20135;-94
2024/02/08 09:27:56;;;;;;;0.70;0.70;;;;;;;9.74;88.29;97156.00;4942439;28;20064;-93
2024/02/08 09:30:52;;;;;;;0.60;0.60;;;;;;;9.76;87.63;97156.88;4910240;28;20048;-94
2024/02/08 09:33:20;;;;;;;0.70;0.70;;;;;;;9.61;88.25;97155.00;4922947;28;20059;-94
2024/02/08 09:35:47;;;;;;;0.60;0.60;;;;;;;9.70;88.25;97151.53;4941141;28;20042;-95
2024/02/08 09:38:18;;;;;;;0.70;0.70;;;;;;;9.72;87.33;97152.41;4924013;28;20108;-95
2024/02/08 09:40:46;;;;;;;0.70;0.70;;;;;;;9.89;86.73;97150.78;4945593;28;20040;-96
2024/02/08 09:43:17;;;;;;;;;;;;;;;9.81;87.07;97148.94;4931876;28;20028;-94
2024/02/08 09:46:10;;;;;;;0.70;0.70;;;;;;;9.77;88.24;97146.28;4931109;28;19918;-96
2024/02/08 09:48:54;;;;;;;0.70;0.70;;;;;;;9.83;88.12;97150.75;4926028;28;20040;-96
2024/02/08 09:51:24;;;;;;;0.60;0.60;;;;;;;9.81;88.65;97149.81;4928425;28;20047;-94
2024/02/08 09:53:54;;;;;;;0.70;0.70;;;;;;;9.67;89.01;97139.06;4910339;28;20063;-93
2024/02/08 09:56:37;;;;;;;0.70;0.70;;;;;;;9.81;88.61;97152.47;4911937;28;20541;-93
2024/02/08 09:59:07;;;;;;;0.70;0.70;;;;;;;9.81;88.64;97144.50;4936889;28;20052;-94
2024/02/08 10:01:43;;;;;;;0.63;0.63;;;;;;;9.91;87.02;97150.78;4947469;23;20048;-95
2024/02/08 10:04:17;;;;;;;0.70;0.70;;;;;;;9.92;87.42;97145.47;4901439;28;20024;-94
2024/02/08 10:12:53;;;;;;;0.60;0.60;;;;;;;10.07;86.69;97144.66;4905377;28;20046;-94
2024/02/08 10:15:26;;;;;;;0.60;0.60;;;;;;;10.04;86.18;97149.97;4920097;29;20048;-93
2024/02/08 10:18:10;;;;;;;0.75;0.75;;;;;;;10.07;86.78;97146.44;4903304;29;20041;-94
2024/02/08 10:20:46;;;;;;;0.70;0.70;;;;;;;10.16;86.23;97152.72;4914522;29;20181;-93
2024/02/08 10:23:35;;;;;;;0.60;0.60;;;;;;;10.17;86.85;97149.16;4912216;29;20049;-93
2024/02/08 10:26:19;;;;;;;0.70;0.70;;;;;;;10.13;87.46;97144.69;4898137;28;20109;-91
2024/02/08 10:28:53;;;;;;;0.70;0.70;;;;;;;10.18;87.49;97142.06;4935603;28;20837;-94
2024/02/08 10:31:27;;;;;;;0.70;0.70;;;;;;;10.18;87.69;97132.28;4899360;29;20063;-93
2024/02/08 10:34:08;;;;;;;0.70;0.70;;;;;;;10.23;87.93;97124.31;4912837;28;20024;-94
2024/02/08 10:36:44;;;;;;;0.60;0.60;;;;;;;10.28;87.30;97125.25;4911864;28;20040;-94
2024/02/08 10:39:25;;;;;;;0.60;0.60;;;;;;;10.24;89.13;97120.78;4904710;29;20037;-92
2024/02/08 10:41:57;;;;;;;0.70;0.70;;;;;;;10.21;88.37;97110.09;4907116;28;20068;-94
2024/02/08 10:44:29;;;;;;;0.70;0.70;;;;;;;10.23;88.08;97113.66;4898455;29;20052;-93
2024/02/08 10:47:08;;;;;;;0.60;0.60;;;;;;;10.28;88.02;97117.25;4894756;29;20036;-92
2024/02/08 10:49:42;;;;;;;0.60;0.60;;;;;;;10.42;85.79;97102.19;4905366;28;20127;-96
2024/02/08 10:52:19;;;;;;;0.60;0.60;;;;;;;10.48;85.66;97104.88;4881316;28;20029;-94
2024/02/08 10:54:53;;;;;;;0.60;0.60;;;;;;;10.59;85.69;97102.28;4914650;29;20522;-94
2024/02/08 10:57:39;;;;;;;0.68;0.68;;;;;;;10.55;85.73;97086.25;4896742;28;20627;-94
2024/02/08 11:03:00;;;;;;;0.70;0.70;;;;;;;10.44;86.51;97080.88;4902258;28;20065;-93
2024/02/08 11:07:53;;;;;;;0.70;0.70;;;;;;;10.43;86.13;97082.66;4902001;29;20467;-94
2024/02/08 11:10:31;;;;;;;0.70;0.70;;;;;;;10.43;86.15;97074.66;4901821;29;20040;-92
2024/02/08 11:13:10;;;;;;;0.60;0.60;;;;;;;10.39;86.65;97066.63;4873560;29;20044;-93
2024/02/08 11:15:40;;;;;;;0.70;0.70;;;;;;;10.34;86.15;97068.41;4899548;28;20037;-92
2024/02/08 11:18:32;;;;;;;0.65;0.65;;;;;;;10.33;86.96;97071.97;4918324;29;20058;-93
2024/02/08 11:21:05;;;;;;;0.70;0.70;;;;;;;10.27;86.62;97070.16;4896822;29;20055;-94
2024/02/08 11:23:32;;;;;;;0.70;0.70;;;;;;;10.34;86.58;97055.97;4893837;29;20045;-93
2024/02/08 11:26:07;;;;;;;0.70;0.70;;;;;;;10.43;85.72;97063.09;4911018;29;20036;-94
2024/02/08 11:28:44;;;;;;;0.70;0.70;;;;;;;10.39;85.59;97062.19;4914579;28;20053;-92
2024/02/08 11:31:17;;;;;;;0.70;0.70;;;;;;;10.41;86.78;97052.44;4898598;28;20075;-92
2024/02/08 11:33:44;;;;;;;0.60;0.60;;;;;;;10.33;86.26;97047.97;4912773;28;20048;-91
2024/02/08 11:36:12;;;;;;;0.70;0.70;;;;;;;10.31;86.73;97037.31;4897057;29;20041;-92
2024/02/08 11:38:57;;;;;;;0.70;0.70;;;;;;;10.42;86.34;97029.34;4895702;29;20037;-90
2024/02/08 11:41:26;;;;;;;0.70;0.70;;;;;;;10.52;85.75;97032.00;4907328;28;20411;-92
2024/02/08 11:44:02;;;;;;;0.70;0.70;;;;;;;10.52;86.01;97020.47;4906619;28;20107;-91
2024/02/08 11:46:45;;;;;;;0.70;0.70;;;;;;;10.61;86.92;97008.94;4911566;28;20033;-91
2024/02/08 11:49:31;;;;;;;0.60;0.60;;;;;;;10.67;85.38;97003.59;4885839;29;20573;-91
2024/02/08 11:51:58;;;;;;;0.60;0.60;;;;;;;10.94;84.56;97008.94;4907386;28;20068;-92
2024/02/08 11:54:37;;;;;;;0.70;0.70;;;;;;;11.03;84.15;96997.38;4903974;29;20079;-93
2024/02/08 11:57:09;;;;;;;0.60;0.60;;;;;;;10.86;83.81;97000.03;4898730;28;20095;-92
2024/02/08 11:59:38;;;;;;;0.60;0.60;;;;;;;10.84;84.66;96985.81;4913168;28;20037;-94
2024/02/08 12:02:11;;;;;;;0.50;0.50;;;;;;;10.75;84.15;96975.16;4902070;29;20147;-93
2024/02/08 12:04:37;;;;;;;0.60;0.60;;;;;;;10.74;84.39;96978.72;4907570;29;20474;-93
2024/02/08 12:07:06;;;;;;;0.60;0.60;;;;;;;10.74;85.43;96973.38;4887723;28;20143;-94
2024/02/08 12:09:32;;;;;;;0.60;0.60;;;;;;;10.77;84.87;96968.91;4904504;28;20071;-95
2024/02/08 12:11:58;;;;;;;0.50;0.50;;;;;;;10.80;84.14;96970.69;4902425;29;20040;-94
2024/02/08 12:14:27;;;;;;;0.60;0.60;;;;;;;10.84;84.31;96968.94;4894075;28;20068;-95
2024/02/08 12:16:59;;;;;;;0.70;0.70;;;;;;;10.91;84.48;96965.34;4892633;28;20103;-95
2024/02/08 12:19:30;;;;;;;0.60;0.60;;;;;;;10.90;84.53;96960.91;4901449;29;20039;-91
2024/02/08 12:22:03;;;;;;;0.60;0.60;;;;;;;10.92;83.42;96962.72;4903361;29;20100;-91
2024/02/08 12:24:31;;;;;;;0.57;0.57;;;;;;;10.89;83.91;96965.38;4882565;29;20536;-95
2024/02/08 12:27:05;;;;;;;0.60;0.60;;;;;;;10.90;84.10;96960.91;4903269;29;20398;-95
2024/02/08 12:29:33;;;;;;;0.60;0.60;;;;;;;10.99;83.68;96951.13;4908426;28;20107;-94
2024/02/08 12:31:59;;;;;;;0.60;0.60;;;;;;;10.98;83.65;96956.47;4897844;28;20033;-93
2024/02/08 12:34:32;;;;;;;0.70;0.70;;;;;;;11.09;82.80;96948.44;4890617;28;20788;-95
2024/02/08 12:37:07;;;;;;;0.63;0.63;;;;;;;11.19;81.69;96948.41;4900287;28;20060;-95
2024/02/08 12:39:49;;;;;;;0.60;0.60;;;;;;;11.27;82.49;96949.28;4911649;29;20410;-94
2024/02/08 12:42:15;;;;;;;0.60;0.60;;;;;;;11.19;82.69;96948.41;4900440;28;20068;-95
2024/02/08 12:44:48;;;;;;;0.60;0.60;;;;;;;11.17;82.50;96944.00;4901745;29;20668;-95
2024/02/08 12:47:17;;;;;;;0.60;0.60;;;;;;;11.26;82.63;96942.19;4920054;28;20032;-91
2024/02/08 12:49:50;;;;;;;0.60;0.60;;;;;;;11.27;80.72;96945.75;4922195;29;20048;-94
2024/02/08 12:52:16;;;;;;;0.60;0.60;;;;;;;11.21;82.55;96943.97;4897150;28;20036;-94
2024/02/08 12:54:42;;;;;;;0.60;0.60;;;;;;;11.32;81.81;96935.94;4884596;29;20055;-94
2024/02/08 12:57:12;;;;;;;0.60;0.60;;;;;;;11.29;81.62;96941.28;4905985;29;20040;-96
2024/02/08 12:59:42;;;;;;;0.60;0.60;;;;;;;11.32;81.72;96940.41;4886427;29;20045;-94
2024/02/08 13:02:18;;;;;;;0.60;0.60;;;;;;;11.36;81.26;96942.16;4904952;29;20036;-94
2024/02/08 13:04:48;;;;;;;0.60;0.60;;;;;;;11.27;81.16;96940.41;4905541;28;20818;-94
2024/02/08 13:07:19;;;;;;;0.60;0.60;;;;;;;11.40;79.99;96943.91;4905974;29;20050;-96
2024/02/08 13:09:46;;;;;;;0.60;0.60;;;;;;;11.39;79.76;96940.34;4907097;28;20043;-94
2024/02/08 13:12:19;;;;;;;0.70;0.70;;;;;;;11.34;80.16;96944.81;4888085;29;20067;-94
2024/02/08 13:14:51;;;;;;;0.60;0.60;;;;;;;11.27;79.86;96953.75;4905384;28;20060;-94
2024/02/08 13:17:23;;;;;;;0.60;0.60;;;;;;;11.37;78.87;96947.50;4925387;29;20044;-92
2024/02/08 13:19:55;;;;;;;0.60;0.60;;;;;;;11.40;78.66;96955.50;4938273;28;20025;-93
2024/02/08 13:22:31;;;;;;;0.60;0.60;;;;;;;11.59;77.88;96942.06;4911872;28;20104;-93
2024/02/08 13:24:59;;;;;;;0.63;0.63;;;;;;;11.76;75.94;96946.47;4897503;28;20027;-93
2024/02/08 13:27:30;;;;;;;0.60;0.60;;;;;;;11.89;75.43;96939.31;4909451;28;20025;-94
2024/02/08 13:29:59;;;;;;;0.60;0.60;;;;;;;12.00;74.50;96947.28;4908622;29;20104;-91
2024/02/08 13:32:31;;;;;;;0.50;0.50;;;;;;;12.03;74.16;96934.78;4906774;28;20021;-90
2024/02/08 13:35:02;;;;;;;0.60;0.60;;;;;;;12.20;72.88;96925.78;4909326;28;20075;-95
2024/02/08 13:37:28;;;;;;;0.57;0.57;;;;;;;12.31;72.12;96916.81;4909020;28;20055;-93
2024/02/08 13:40:03;;;;;;;0.50;0.50;;;;;;;12.35;71.79;96911.41;4913973;28;20028;-92
2024/02/08 13:42:31;;;;;;;0.60;0.60;;;;;;;12.35;71.87;96906.94;4902708;28;20097;-92
2024/02/08 13:45:03;;;;;;;0.50;0.50;;;;;;;12.28;71.58;96899.88;4896404;29;20024;-92
2024/02/08 13:47:38;;;;;;;0.60;0.60;;;;;;;12.30;72.23;96893.59;4933811;28;20037;-91
2024/02/08 13:50:10;;;;;;;0.50;0.50;;;;;;;12.34;71.94;96899.81;4924052;28;20116;-93
2024/02/08 13:52:38;;;;;;;0.57;0.57;;;;;;;12.40;72.13;96894.41;4915056;28;20387;-91
2024/02/08 13:55:07;;;;;;;0.52;0.52;;;;;;;12.36;71.92;96894.47;4892304;29;20041;-92
2024/02/08 13:57:34;;;;;;;0.50;0.50;;;;;;;12.39;71.58;96895.34;4925962;28;21054;-95
2024/02/08 14:00:04;;;;;;;0.60;0.60;;;;;;;12.46;71.13;96897.06;4896077;28;20033;-93
2024/02/08 14:05:26;;;;;;;0.52;0.52;;;;;;;12.48;69.90;96883.69;5498266;22;20053;-94
2024/02/08 14:07:54;;;;;;;0.50;0.50;;;;;;;12.44;70.25;96885.47;5049777;28;20041;-92
2024/02/08 14:10:27;;;;;;;0.50;0.50;;;;;;;12.35;70.92;96887.34;5049017;28;20119;-92
2024/02/08 14:18:30;;;;;;;0.50;0.50;;;;;;;12.22;70.13;96890.13;5364093;23;20032;-94
2024/02/08 14:21:00;;;;;;;0.55;0.55;;;;;;;12.35;69.64;96892.69;5051304;28;20050;-94
2024/02/08 14:23:31;;;;;;;0.50;0.50;;;;;;;12.20;70.54;96891.91;5053992;28;20032;-92